createdAt,value
2018-02-15T00:02:01.372Z,18.87
2018-02-15T00:04:28.836Z,19.37
2018-02-15T00:06:56.412Z,17.75
2018-02-15T00:09:23.871Z,19.60
2018-02-15T00:11:51.320Z,21.40
2018-02-15T00:14:18.781Z,19.77
2018-02-15T00:16:46.215Z,20.25
2018-02-15T00:19:13.745Z,19.73
2018-02-15T00:21:41.200Z,19.45
2018-02-15T00:24:08.675Z,21.50
2018-02-15T00:26:36.118Z,17.45
2018-02-15T00:29:03.582Z,18.58
2018-02-15T00:31:31.013Z,18.95
2018-02-15T00:33:59.347Z,19.73
2018-02-15T00:36:26.787Z,18.08
2018-02-15T00:38:54.252Z,19.17
2018-02-15T00:41:22.453Z,16.87
2018-02-15T00:43:49.904Z,19.40
2018-02-15T00:46:17.339Z,21.15
2018-02-15T00:48:44.880Z,19.10
2018-02-15T00:51:12.342Z,19.35
2018-02-15T00:53:39.825Z,18.98
2018-02-15T00:56:07.263Z,22.23
2018-02-15T00:58:51.815Z,19.90
2018-02-15T01:01:19.280Z,18.37
2018-02-15T01:03:46.788Z,18.05
2018-02-15T01:06:15.081Z,19.70
2018-02-15T01:08:42.564Z,19.83
2018-02-15T01:11:10.006Z,19.40
2018-02-15T01:13:37.435Z,16.98
2018-02-15T01:16:07.563Z,16.87
2018-02-15T01:18:35.785Z,17.98
2018-02-15T01:21:03.223Z,20.00
2018-02-15T01:23:30.904Z,18.27
2018-02-15T01:25:58.342Z,19.12
2018-02-15T01:28:25.773Z,18.23
2018-02-15T01:30:54.009Z,17.83
2018-02-15T01:33:21.447Z,19.80
2018-02-15T01:35:48.879Z,19.73
2018-02-15T01:38:16.576Z,18.50
2018-02-15T01:40:44.781Z,18.80
2018-02-15T01:43:12.256Z,18.98
2018-02-15T01:45:40.463Z,19.33
2018-02-15T01:48:07.895Z,18.42
2018-02-15T01:50:36.115Z,18.05
2018-02-15T01:53:03.584Z,20.75
2018-02-15T01:55:31.240Z,22.42
2018-02-15T01:57:58.679Z,19.65
2018-02-15T02:00:26.112Z,18.95
2018-02-15T02:02:53.571Z,21.62
2018-02-15T02:05:21.032Z,22.33
2018-02-15T02:07:48.504Z,21.35
2018-02-15T02:10:24.988Z,20.58
2018-02-15T02:12:52.579Z,21.25
2018-02-15T02:15:20.008Z,20.83
2018-02-15T02:17:47.460Z,21.40
2018-02-15T02:20:14.908Z,23.02
2018-02-15T02:22:42.400Z,21.33
2018-02-15T02:25:20.780Z,22.15
2018-02-15T02:27:48.414Z,20.85
2018-02-15T02:30:16.616Z,19.45
2018-02-15T02:32:44.057Z,21.02
2018-02-15T02:35:11.517Z,21.52
2018-02-15T02:37:39.069Z,22.20
2018-02-15T02:40:06.509Z,20.37
2018-02-15T02:42:34.957Z,19.15
2018-02-15T02:45:02.393Z,21.40
2018-02-15T02:47:29.835Z,22.85
2018-02-15T02:50:06.451Z,21.02
2018-02-15T02:52:33.900Z,24.42
2018-02-15T02:55:01.341Z,19.27
2018-02-15T02:57:28.808Z,21.90
2018-02-15T02:59:56.243Z,21.08
2018-02-15T03:02:23.676Z,21.27
2018-02-15T03:04:51.232Z,20.88
2018-02-15T03:07:24.470Z,22.40
2018-02-15T03:09:51.912Z,21.02
2018-02-15T03:12:19.343Z,20.27
2018-02-15T03:14:46.837Z,23.00
2018-02-15T03:17:14.268Z,23.17
2018-02-15T03:19:41.703Z,22.15
2018-02-15T03:22:10.009Z,24.08
2018-02-15T03:24:37.756Z,18.17
2018-02-15T03:27:05.191Z,23.77
2018-02-15T03:29:32.630Z,21.15
2018-02-15T03:32:00.173Z,20.70
2018-02-15T03:34:27.612Z,22.95
2018-02-15T03:36:55.132Z,21.10
2018-02-15T03:39:23.345Z,20.92
2018-02-15T03:41:50.809Z,22.83
2018-02-15T03:44:18.274Z,22.95
2018-02-15T03:46:45.770Z,23.20
2018-02-15T03:49:13.232Z,22.02
2018-02-15T03:51:41.588Z,22.87
2018-02-15T03:54:14.174Z,21.62
2018-02-15T03:56:41.631Z,26.05
2018-02-15T03:59:09.069Z,21.50
2018-02-15T04:01:36.527Z,23.25
2018-02-15T04:04:03.964Z,27.62
2018-02-15T04:06:31.607Z,23.80
2018-02-15T04:08:59.308Z,24.23
2018-02-15T04:11:26.780Z,27.67
2018-02-15T04:13:54.254Z,26.35
2018-02-15T04:16:21.697Z,29.45
2018-02-15T04:18:49.137Z,29.25
2018-02-15T04:21:16.604Z,29.48
2018-02-15T04:23:44.055Z,27.13
2018-02-15T04:26:11.560Z,28.20
2018-02-15T04:28:39.826Z,30.62
2018-02-15T04:31:08.049Z,27.40
2018-02-15T04:33:35.491Z,33.20
2018-02-15T04:36:03.081Z,31.95
2018-02-15T04:38:30.536Z,30.45
2018-02-15T04:40:58.791Z,31.37
2018-02-15T04:43:27.241Z,34.00
2018-02-15T04:45:55.471Z,34.85
2018-02-15T04:48:22.903Z,34.35
2018-02-15T04:50:52.276Z,31.90
2018-02-15T04:53:20.514Z,32.50
2018-02-15T04:55:48.063Z,35.30
2018-02-15T04:58:25.544Z,35.22
2018-02-15T05:00:53.064Z,33.80
2018-02-15T05:03:21.292Z,35.55
2018-02-15T05:05:48.728Z,37.20
2018-02-15T05:08:16.306Z,38.95
2018-02-15T05:10:43.764Z,36.28
2018-02-15T05:13:11.325Z,40.78
2018-02-15T05:15:38.765Z,33.05
2018-02-15T05:18:06.224Z,36.78
2018-02-15T05:20:33.668Z,36.08
2018-02-15T05:23:01.244Z,39.60
2018-02-15T05:25:28.694Z,37.10
2018-02-15T05:27:56.137Z,38.20
2018-02-15T05:30:23.667Z,39.53
2018-02-15T05:32:51.872Z,38.92
2018-02-15T05:35:21.248Z,40.08
2018-02-15T05:37:49.459Z,41.25
2018-02-15T05:40:17.267Z,34.70
2018-02-15T05:42:44.704Z,38.42
2018-02-15T05:45:12.364Z,52.65
2018-02-15T05:47:39.817Z,63.05
2018-02-15T05:50:11.411Z,44.08
2018-02-15T05:52:38.917Z,50.50
2018-02-15T05:55:06.426Z,44.25
2018-02-15T05:57:33.860Z,41.78
2018-02-15T06:00:01.299Z,47.80
2018-02-15T06:02:28.792Z,44.50
2018-02-15T06:04:56.232Z,44.35
2018-02-15T06:07:23.888Z,42.83
2018-02-15T06:09:51.323Z,43.80
2018-02-15T06:12:29.669Z,41.75
2018-02-15T06:14:57.128Z,49.58
2018-02-15T06:17:24.659Z,48.58
2018-02-15T06:19:52.102Z,47.15
2018-02-15T06:22:19.566Z,45.60
2018-02-15T06:24:47.033Z,41.78
2018-02-15T06:27:14.481Z,42.90
2018-02-15T06:29:42.138Z,43.20
2018-02-15T06:32:09.580Z,39.40
2018-02-15T06:34:37.019Z,43.20
2018-02-15T06:37:05.345Z,38.65
2018-02-15T06:39:32.776Z,41.95
2018-02-15T06:42:00.259Z,36.75
2018-02-15T06:44:28.451Z,40.90
2018-02-15T06:46:55.896Z,38.17
2018-02-15T06:49:24.793Z,39.30
2018-02-15T06:51:52.230Z,37.63
2018-02-15T06:54:19.880Z,36.25
2018-02-15T06:56:47.315Z,40.65
2018-02-15T06:59:15.512Z,38.28
2018-02-15T07:01:43.968Z,37.08
2018-02-15T07:04:12.232Z,35.50
2018-02-15T07:06:41.622Z,33.72
2018-02-15T07:09:09.108Z,33.45
2018-02-15T07:11:37.430Z,34.17
2018-02-15T07:14:04.860Z,33.17
2018-02-15T07:16:33.345Z,32.80
2018-02-15T07:19:00.764Z,42.28
2018-02-15T07:21:28.360Z,30.02
2018-02-15T07:23:55.856Z,34.58
2018-02-15T07:26:33.241Z,39.88
2018-02-15T07:29:00.791Z,33.97
2018-02-15T07:31:28.294Z,31.10
2018-02-15T07:33:55.726Z,29.55
2018-02-15T07:36:23.490Z,34.17
2018-02-15T07:38:51.694Z,36.35
2018-02-15T07:41:19.168Z,30.48
2018-02-15T07:43:47.399Z,33.13
2018-02-15T07:46:14.828Z,29.73
2018-02-15T07:48:42.314Z,30.98
2018-02-15T07:51:09.760Z,31.65
2018-02-15T07:53:37.373Z,30.65
2018-02-15T07:56:06.323Z,28.27
2018-02-15T07:58:33.755Z,27.05
2018-02-15T08:01:03.108Z,27.98
2018-02-15T08:03:30.581Z,28.35
2018-02-15T08:05:58.788Z,28.95
2018-02-15T08:08:27.192Z,30.00
2018-02-15T08:10:54.643Z,30.45
2018-02-15T08:13:22.087Z,26.42
2018-02-15T08:15:50.059Z,27.60
2018-02-15T08:18:17.492Z,27.17
2018-02-15T08:20:44.928Z,26.95
2018-02-15T08:23:13.284Z,29.33
2018-02-15T08:25:40.724Z,28.95
2018-02-15T08:28:08.192Z,28.12
2018-02-15T08:30:35.765Z,28.10
2018-02-15T08:33:03.218Z,29.80
2018-02-15T08:35:31.604Z,28.98
2018-02-15T08:37:59.064Z,30.80
2018-02-15T08:40:26.635Z,29.15
2018-02-15T08:42:54.841Z,29.08
2018-02-15T08:45:22.277Z,31.37
2018-02-15T08:47:50.516Z,29.23
2018-02-15T08:50:17.959Z,33.97
2018-02-15T08:52:45.401Z,127.87
2018-02-15T08:55:16.472Z,31.52
2018-02-15T08:57:43.937Z,27.95
2018-02-15T09:00:11.377Z,32.83
2018-02-15T09:02:38.850Z,33.35
2018-02-15T09:05:06.284Z,30.98
2018-02-15T09:07:33.755Z,31.87
2018-02-15T09:10:01.193Z,32.72
2018-02-15T09:12:28.788Z,32.20
2018-02-15T09:14:56.225Z,30.35
2018-02-15T09:17:26.315Z,28.10
2018-02-15T09:19:53.751Z,28.38
2018-02-15T09:22:28.091Z,30.77
2018-02-15T09:24:55.528Z,28.35
2018-02-15T09:27:22.971Z,29.15
2018-02-15T09:29:51.512Z,32.13
2018-02-15T09:32:18.967Z,26.42
2018-02-15T09:34:47.363Z,27.87
2018-02-15T09:37:14.832Z,28.75
2018-02-15T09:39:43.643Z,26.27
2018-02-15T09:42:11.069Z,30.52
2018-02-15T09:44:38.509Z,27.27
2018-02-15T09:47:06.126Z,26.37
2018-02-15T09:49:33.532Z,30.98
2018-02-15T09:52:00.993Z,30.02
2018-02-15T09:54:28.447Z,28.30
2018-02-15T09:56:55.925Z,28.62
2018-02-15T09:59:25.328Z,29.25
2018-02-15T10:01:54.312Z,26.40
2018-02-15T10:04:21.755Z,26.48
2018-02-15T10:06:49.276Z,27.83
2018-02-15T10:09:16.717Z,30.58
2018-02-15T10:11:45.017Z,27.50
2018-02-15T10:14:12.460Z,30.17
2018-02-15T10:16:40.664Z,27.45
2018-02-15T10:19:08.328Z,28.05
2018-02-15T10:21:37.487Z,27.90
2018-02-15T10:24:05.720Z,29.30
2018-02-15T10:26:33.188Z,26.73
2018-02-15T10:29:00.647Z,27.60
2018-02-15T10:31:28.087Z,25.67
2018-02-15T10:33:55.684Z,30.52
2018-02-15T10:36:23.151Z,28.40
2018-02-15T10:38:55.812Z,27.65
2018-02-15T10:41:23.244Z,28.17
2018-02-15T10:43:50.699Z,26.08
2018-02-15T10:46:18.229Z,30.45
2018-02-15T10:48:45.680Z,27.55
2018-02-15T10:51:23.319Z,26.55
2018-02-15T10:53:51.573Z,28.70
2018-02-15T10:56:19.040Z,27.13
2018-02-15T10:58:46.496Z,26.75
2018-02-15T11:01:19.574Z,27.00
2018-02-15T11:04:01.889Z,27.35
2018-02-15T11:06:30.947Z,25.10
2018-02-15T11:08:59.160Z,25.90
2018-02-15T11:11:26.735Z,24.60
2018-02-15T11:13:54.213Z,25.77
2018-02-15T11:16:21.836Z,25.05
2018-02-15T11:18:49.391Z,26.35
2018-02-15T11:21:16.836Z,28.17
2018-02-15T11:23:44.268Z,28.62
2018-02-15T11:26:12.553Z,26.92
2018-02-15T11:28:40.800Z,29.77
2018-02-15T11:31:08.236Z,26.60
2018-02-15T11:33:35.683Z,26.05
2018-02-15T11:36:03.345Z,27.55
2018-02-15T11:38:30.873Z,49.65
2018-02-15T11:40:58.303Z,28.60
2018-02-15T11:43:25.834Z,26.10
2018-02-15T11:45:53.284Z,26.17
2018-02-15T11:48:20.751Z,27.67
2018-02-15T11:50:48.248Z,27.20
2018-02-15T11:53:16.599Z,26.80
2018-02-15T11:55:44.073Z,26.62
2018-02-15T11:58:12.283Z,25.88
2018-02-15T12:00:41.823Z,29.10
2018-02-15T12:03:09.276Z,25.88
2018-02-15T12:05:36.754Z,25.00
2018-02-15T12:08:04.195Z,36.25
2018-02-15T12:10:33.806Z,62.00
2018-02-15T12:13:01.275Z,34.47
2018-02-15T12:15:28.724Z,28.35
2018-02-15T12:17:56.180Z,62.55
2018-02-15T12:20:23.959Z,36.30
2018-02-15T12:22:51.400Z,28.92
2018-02-15T12:25:19.797Z,55.70
2018-02-15T12:27:47.328Z,45.90
2018-02-15T12:30:14.771Z,30.37
2018-02-15T12:32:42.237Z,26.33
2018-02-15T12:35:09.687Z,46.15
2018-02-15T12:37:37.244Z,31.35
2018-02-15T12:40:05.440Z,27.92
2018-02-15T12:42:32.999Z,26.60
2018-02-15T12:45:00.445Z,25.85
2018-02-15T12:47:27.905Z,32.08
2018-02-15T12:49:56.340Z,24.77
2018-02-15T12:52:24.584Z,27.73
2018-02-15T12:54:52.068Z,24.12
2018-02-15T12:57:20.283Z,24.23
2018-02-15T12:59:47.720Z,23.05
2018-02-15T13:02:15.249Z,24.73
2018-02-15T13:04:42.746Z,22.20
2018-02-15T13:07:11.175Z,23.05
2018-02-15T13:09:38.629Z,22.02
2018-02-15T13:12:06.112Z,26.33
2018-02-15T13:14:34.336Z,23.10
2018-02-15T13:17:01.780Z,23.65
2018-02-15T13:19:41.061Z,23.25
2018-02-15T13:22:20.440Z,22.75
2018-02-15T13:24:47.931Z,25.27
2018-02-15T13:27:15.368Z,23.17
2018-02-15T13:29:42.984Z,23.67
2018-02-15T13:32:25.420Z,23.50
2018-02-15T13:34:52.914Z,22.48
2018-02-15T13:37:20.395Z,26.33
2018-02-15T13:39:47.984Z,22.55
2018-02-15T13:42:16.308Z,22.42
2018-02-15T13:44:43.749Z,23.00
2018-02-15T13:47:11.207Z,22.80
2018-02-15T13:49:38.830Z,21.05
2018-02-15T13:52:07.906Z,24.00
2018-02-15T13:54:35.386Z,22.42
2018-02-15T13:57:02.848Z,25.77
2018-02-15T13:59:30.329Z,23.25
2018-02-15T14:01:59.508Z,25.40
2018-02-15T14:04:27.718Z,24.50
2018-02-15T14:06:55.172Z,26.30
2018-02-15T14:09:22.739Z,22.60
2018-02-15T14:11:50.186Z,25.37
2018-02-15T14:14:17.680Z,26.27
2018-02-15T14:16:45.317Z,24.75
2018-02-15T14:19:12.813Z,23.58
2018-02-15T14:21:40.252Z,25.05
2018-02-15T14:24:07.701Z,23.80
2018-02-15T14:26:35.191Z,23.85
2018-02-15T14:29:03.561Z,24.92
2018-02-15T14:31:31.000Z,24.50
2018-02-15T14:33:58.589Z,24.37
2018-02-15T14:36:26.033Z,25.35
2018-02-15T14:38:53.467Z,24.52
2018-02-15T14:41:22.785Z,25.08
2018-02-15T14:43:50.301Z,26.23
2018-02-15T14:46:17.739Z,25.62
2018-02-15T14:48:45.952Z,26.10
2018-02-15T14:51:13.405Z,24.12
2018-02-15T14:53:40.872Z,26.40
2018-02-15T14:56:08.353Z,26.58
2018-02-15T14:58:37.331Z,24.35
2018-02-15T15:01:04.780Z,24.52
2018-02-15T15:03:32.344Z,25.58
2018-02-15T15:05:59.785Z,24.37
2018-02-15T15:08:27.233Z,27.25
2018-02-15T15:10:54.696Z,24.60
2018-02-15T15:13:22.128Z,26.65
2018-02-15T15:15:50.435Z,27.60
2018-02-15T15:18:17.898Z,26.25
2018-02-15T15:20:45.331Z,24.00
2018-02-15T15:23:14.272Z,27.13
2018-02-15T15:25:41.720Z,26.23
2018-02-15T15:28:09.203Z,24.42
2018-02-15T15:30:36.631Z,23.17
2018-02-15T15:33:04.247Z,26.60
2018-02-15T15:35:32.461Z,26.00
2018-02-15T15:37:59.889Z,26.17
2018-02-15T15:40:27.496Z,25.23
2018-02-15T15:42:55.097Z,27.10
2018-02-15T15:45:23.304Z,24.80
2018-02-15T15:47:50.769Z,27.98
2018-02-15T15:50:18.203Z,33.42
2018-02-15T15:52:45.657Z,172.20
2018-02-15T15:55:13.252Z,35.95
2018-02-15T15:57:40.717Z,39.55
2018-02-15T16:00:08.156Z,25.08
2018-02-15T16:02:35.620Z,28.15
2018-02-15T16:05:03.061Z,26.23
2018-02-15T16:07:30.528Z,29.37
2018-02-15T16:09:58.764Z,29.00
2018-02-15T16:12:27.155Z,28.15
2018-02-15T16:14:55.357Z,30.10
2018-02-15T16:17:22.803Z,32.83
2018-02-15T16:19:50.268Z,32.80
2018-02-15T16:22:17.736Z,31.85
2018-02-15T16:24:48.222Z,29.15
2018-02-15T16:27:16.436Z,27.33
2018-02-15T16:29:44.072Z,27.92
2018-02-15T16:32:11.531Z,26.80
2018-02-15T16:34:38.977Z,33.50
2018-02-15T16:37:07.232Z,28.77
2018-02-15T16:39:34.673Z,29.58
2018-02-15T16:42:02.140Z,29.25
2018-02-15T16:44:30.524Z,31.67
2018-02-15T16:46:58.116Z,30.20
2018-02-15T16:49:25.556Z,31.33
2018-02-15T16:51:54.110Z,30.62
2018-02-15T16:54:21.543Z,31.80
2018-02-15T16:56:49.013Z,34.58
2018-02-15T16:59:17.438Z,38.08
2018-02-15T17:01:45.787Z,32.78
2018-02-15T17:04:13.228Z,30.12
2018-02-15T17:06:40.685Z,30.37
2018-02-15T17:12:05.255Z,33.83
2018-02-15T17:14:32.697Z,36.78
2018-02-15T17:17:00.929Z,35.47
2018-02-15T17:19:30.558Z,33.60
2018-02-15T17:21:58.031Z,32.17
2018-02-15T17:24:33.531Z,33.97
2018-02-15T17:27:01.002Z,32.88
2018-02-15T17:29:28.443Z,42.33
2018-02-15T17:31:56.324Z,33.47
2018-02-15T17:34:23.761Z,33.65
2018-02-15T17:36:52.368Z,37.00
2018-02-15T17:39:19.841Z,33.67
2018-02-15T17:41:47.301Z,36.67
2018-02-15T17:44:14.731Z,36.88
2018-02-15T17:46:42.196Z,36.25
2018-02-15T17:49:11.612Z,32.25
2018-02-15T17:51:39.156Z,35.38
2018-02-15T17:54:06.630Z,32.70
2018-02-15T17:56:34.088Z,33.70
2018-02-15T17:59:01.581Z,34.08
2018-02-15T18:01:29.783Z,37.65
2018-02-15T18:03:57.231Z,36.97
2018-02-15T18:06:24.705Z,37.15
2018-02-15T18:08:52.145Z,42.78
2018-02-15T18:11:22.106Z,37.72
2018-02-15T18:13:49.551Z,50.22
2018-02-15T18:16:18.080Z,37.17
2018-02-15T18:18:46.290Z,34.67
2018-02-15T18:21:14.726Z,40.25
2018-02-15T18:23:42.938Z,41.80
2018-02-15T18:26:16.636Z,47.00
2018-02-15T18:28:44.111Z,41.30
2018-02-15T18:31:11.620Z,37.53
2018-02-15T18:33:39.060Z,43.63
2018-02-15T18:36:07.573Z,40.33
2018-02-15T18:38:35.873Z,36.70
2018-02-15T18:41:06.080Z,36.08
2018-02-15T18:43:35.240Z,48.30
2018-02-15T18:46:02.736Z,42.53
2018-02-15T18:48:34.162Z,45.72
2018-02-15T18:51:01.606Z,47.22
2018-02-15T18:53:29.059Z,50.65
2018-02-15T18:55:56.500Z,49.10
2018-02-15T18:58:24.140Z,42.53
2018-02-15T19:00:51.568Z,38.22
2018-02-15T19:03:19.787Z,37.03
2018-02-15T19:05:47.237Z,37.25
2018-02-15T19:08:15.562Z,43.90
2018-02-15T19:10:43.036Z,45.65
2018-02-15T19:13:11.261Z,37.70
2018-02-15T19:15:39.164Z,46.42
2018-02-15T19:18:06.600Z,47.72
2018-02-15T19:20:34.991Z,39.47
2018-02-15T19:23:02.552Z,40.72
2018-02-15T19:25:29.983Z,35.65
2018-02-15T19:28:10.324Z,40.80
2018-02-15T19:30:37.771Z,35.08
2018-02-15T19:33:05.864Z,37.15
2018-02-15T19:35:33.310Z,32.88
2018-02-15T19:38:00.813Z,32.97
2018-02-15T19:40:28.248Z,35.63
2018-02-15T19:42:55.703Z,33.38
2018-02-15T19:45:23.149Z,45.22
2018-02-15T19:47:50.739Z,39.60
2018-02-15T19:50:18.172Z,35.78
2018-02-15T19:52:45.640Z,32.90
2018-02-15T19:55:15.064Z,32.47
2018-02-15T19:57:42.526Z,30.52
2018-02-15T20:00:10.005Z,33.80
2018-02-15T20:02:38.308Z,33.17
2018-02-15T20:05:05.769Z,32.35
2018-02-15T20:07:33.267Z,44.75
2018-02-15T20:10:00.709Z,41.33
2018-02-15T20:12:31.648Z,37.55
2018-02-15T20:14:59.104Z,39.03
2018-02-15T20:17:26.560Z,35.67
2018-02-15T20:20:03.554Z,36.00
2018-02-15T20:22:31.000Z,62.10
2018-02-15T20:24:58.435Z,44.25
2018-02-15T20:27:31.467Z,49.50
2018-02-15T20:29:58.969Z,43.13
2018-02-15T20:32:34.242Z,48.15
2018-02-15T20:35:03.138Z,41.17
2018-02-15T20:37:36.220Z,38.70
2018-02-15T20:40:09.465Z,38.50
2018-02-15T20:42:39.560Z,40.70
2018-02-15T20:45:07.034Z,40.78
2018-02-15T20:47:37.232Z,53.72
2018-02-15T20:50:10.446Z,44.40
2018-02-15T20:52:44.404Z,44.25
2018-02-15T20:55:23.760Z,59.33
2018-02-15T20:57:51.206Z,43.83
2018-02-15T21:00:18.667Z,163.70
2018-02-15T21:02:47.051Z,46.80
2018-02-15T21:05:14.573Z,88.12
2018-02-15T21:07:42.007Z,58.20
2018-02-15T21:10:10.217Z,38.22
2018-02-15T21:12:37.712Z,34.28
2018-02-15T21:15:05.317Z,35.28
2018-02-15T21:17:32.761Z,33.42
2018-02-15T21:20:00.975Z,53.22
2018-02-15T21:22:28.425Z,34.70
2018-02-15T21:25:00.828Z,32.35
2018-02-15T21:27:28.264Z,77.90
2018-02-15T21:29:55.706Z,42.72
2018-02-15T21:32:23.233Z,76.20
2018-02-15T21:34:53.434Z,65.60
2018-02-15T21:37:20.992Z,60.40
2018-02-15T21:39:48.429Z,44.70
2018-02-15T21:42:15.973Z,39.72
2018-02-15T21:44:43.415Z,41.67
2018-02-15T21:47:10.858Z,40.03
2018-02-15T21:49:39.091Z,43.75
2018-02-15T21:52:06.565Z,41.10
2018-02-15T21:54:34.028Z,47.50
2018-02-15T21:57:01.612Z,43.50
2018-02-15T21:59:29.096Z,37.13
2018-02-15T22:01:56.569Z,46.05
2018-02-15T22:04:28.242Z,39.25
2018-02-15T22:06:55.735Z,41.08
2018-02-15T22:09:23.960Z,50.95
2018-02-15T22:11:51.404Z,43.00
2018-02-15T22:14:18.842Z,48.42
2018-02-15T22:16:47.373Z,56.60
2018-02-15T22:19:14.844Z,50.15
2018-02-15T22:21:42.303Z,65.43
2018-02-15T22:24:09.773Z,69.78
2018-02-15T22:26:37.999Z,73.97
2018-02-15T22:29:06.412Z,65.53
2018-02-15T22:31:33.943Z,79.07
2018-02-15T22:34:01.384Z,53.40
2018-02-15T22:36:28.844Z,63.53
2018-02-15T22:38:58.177Z,70.40
2018-02-15T22:41:25.732Z,94.75
2018-02-15T22:43:53.166Z,69.20
2018-02-15T22:46:20.720Z,63.72
2018-02-15T22:48:48.157Z,88.40
2018-02-15T22:51:15.585Z,65.03
2018-02-15T22:53:43.089Z,60.33
2018-02-15T22:56:10.520Z,67.20
2018-02-15T22:58:38.757Z,64.30
2018-02-15T23:01:06.180Z,55.47
2018-02-15T23:03:33.791Z,70.95
2018-02-15T23:06:01.272Z,92.47
2018-02-15T23:08:29.472Z,65.47
2018-02-15T23:10:56.939Z,84.93
2018-02-15T23:13:30.019Z,62.80
2018-02-15T23:15:57.480Z,131.07
2018-02-15T23:18:24.971Z,91.25
2018-02-15T23:20:52.416Z,81.32
2018-02-15T23:23:20.908Z,80.68
2018-02-15T23:25:49.572Z,92.90
2018-02-15T23:28:17.037Z,70.82
2018-02-15T23:30:54.511Z,63.80
2018-02-15T23:33:21.979Z,104.03
2018-02-15T23:35:49.424Z,148.13
2018-02-15T23:38:17.021Z,90.87
2018-02-15T23:40:44.468Z,90.50
2018-02-15T23:43:12.025Z,194.62
2018-02-15T23:45:39.468Z,131.55
2018-02-15T23:48:06.941Z,92.55
2018-02-15T23:50:34.386Z,377.15
2018-02-15T23:53:02.160Z,115.75
2018-02-15T23:55:29.600Z,137.95
2018-02-15T23:57:57.044Z,189.50
